sensor_id;sensor_type;location;lat;lon;timestamp;temperature;humidity
8711;DHT22;4392;47.400;8.062;2023-01-04T00:00:15;9.50;99.90
8711;DHT22;4392;47.400;8.062;2023-01-04T00:02:41;9.50;99.90
8711;DHT22;4392;47.400;8.062;2023-01-04T00:05:07;9.60;99.90
8711;DHT22;4392;47.400;8.062;2023-01-04T00:07:33;9.70;99.90
8711;DHT22;4392;47.400;8.062;2023-01-04T00:09:58;9.80;99.90
8711;DHT22;4392;47.400;8.062;2023-01-04T00:12:24;9.80;99.90
8711;DHT22;4392;47.400;8.062;2023-01-04T00:14:50;9.80;99.90
8711;DHT22;4392;47.400;8.062;2023-01-04T00:17:15;9.80;99.90
8711;DHT22;4392;47.400;8.062;2023-01-04T00:19:41;9.80;99.90
8711;DHT22;4392;47.400;8.062;2023-01-04T00:22:07;9.80;99.90
8711;DHT22;4392;47.400;8.062;2023-01-04T00:24:35;9.80;99.90
8711;DHT22;4392;47.400;8.062;2023-01-04T00:27:00;9.60;99.90
8711;DHT22;4392;47.400;8.062;2023-01-04T00:29:26;9.70;99.90
8711;DHT22;4392;47.400;8.062;2023-01-04T00:31:52;9.80;99.90
8711;DHT22;4392;47.400;8.062;2023-01-04T00:34:18;9.80;99.90
8711;DHT22;4392;47.400;8.062;2023-01-04T00:36:43;9.80;99.90
8711;DHT22;4392;47.400;8.062;2023-01-04T00:39:13;9.80;99.90
8711;DHT22;4392;47.400;8.062;2023-01-04T00:41:41;9.80;99.90
8711;DHT22;4392;47.400;8.062;2023-01-04T00:44:08;9.70;99.90
8711;DHT22;4392;47.400;8.062;2023-01-04T00:46:34;9.70;99.90
8711;DHT22;4392;47.400;8.062;2023-01-04T00:49:00;9.70;99.90
8711;DHT22;4392;47.400;8.062;2023-01-04T00:51:27;9.60;99.90
8711;DHT22;4392;47.400;8.062;2023-01-04T00:53:54;9.70;99.90
8711;DHT22;4392;47.400;8.062;2023-01-04T00:56:19;9.60;99.90
8711;DHT22;4392;47.400;8.062;2023-01-04T00:58:45;9.60;99.90
8711;DHT22;4392;47.400;8.062;2023-01-04T01:01:11;9.60;99.90
8711;DHT22;4392;47.400;8.062;2023-01-04T01:03:37;9.60;99.90
8711;DHT22;4392;47.400;8.062;2023-01-04T01:06:04;9.60;99.90
8711;DHT22;4392;47.400;8.062;2023-01-04T01:08:34;9.60;99.90
8711;DHT22;4392;47.400;8.062;2023-01-04T01:11:06;9.60;99.90
8711;DHT22;4392;47.400;8.062;2023-01-04T01:13:33;9.60;99.90
8711;DHT22;4392;47.400;8.062;2023-01-04T01:16:07;9.60;99.90
8711;DHT22;4392;47.400;8.062;2023-01-04T01:18:34;9.60;99.90
8711;DHT22;4392;47.400;8.062;2023-01-04T01:21:08;9.60;99.90
8711;DHT22;4392;47.400;8.062;2023-01-04T01:23:34;9.60;99.90
8711;DHT22;4392;47.400;8.062;2023-01-04T01:26:04;9.60;99.90
8711;DHT22;4392;47.400;8.062;2023-01-04T01:28:31;9.60;99.90
8711;DHT22;4392;47.400;8.062;2023-01-04T01:30:57;9.50;99.90
8711;DHT22;4392;47.400;8.062;2023-01-04T01:33:26;9.50;99.90
8711;DHT22;4392;47.400;8.062;2023-01-04T01:35:51;9.50;99.90
8711;DHT22;4392;47.400;8.062;2023-01-04T01:38:18;9.50;99.90
8711;DHT22;4392;47.400;8.062;2023-01-04T01:40:44;9.50;99.90
8711;DHT22;4392;47.400;8.062;2023-01-04T01:43:21;9.50;99.90
8711;DHT22;4392;47.400;8.062;2023-01-04T01:45:52;9.50;99.90
8711;DHT22;4392;47.400;8.062;2023-01-04T01:48:23;9.40;99.90
8711;DHT22;4392;47.400;8.062;2023-01-04T01:50:56;9.50;99.90
8711;DHT22;4392;47.400;8.062;2023-01-04T01:53:24;9.40;99.90
8711;DHT22;4392;47.400;8.062;2023-01-04T01:55:52;9.40;99.90
8711;DHT22;4392;47.400;8.062;2023-01-04T01:58:24;9.40;99.90
8711;DHT22;4392;47.400;8.062;2023-01-04T02:00:52;9.50;99.90
8711;DHT22;4392;47.400;8.062;2023-01-04T02:03:20;9.40;99.90
8711;DHT22;4392;47.400;8.062;2023-01-04T02:05:49;9.50;99.90
8711;DHT22;4392;47.400;8.062;2023-01-04T02:08:17;9.50;99.90
8711;DHT22;4392;47.400;8.062;2023-01-04T02:10:44;9.50;99.90
8711;DHT22;4392;47.400;8.062;2023-01-04T02:13:23;9.50;99.90
8711;DHT22;4392;47.400;8.062;2023-01-04T02:16:14;9.50;99.90
8711;DHT22;4392;47.400;8.062;2023-01-04T02:18:54;9.50;99.90
8711;DHT22;4392;47.400;8.062;2023-01-04T02:21:46;11.00;99.90
8711;DHT22;4392;47.400;8.062;2023-01-04T02:35:34;13.30;99.90
8711;DHT22;4392;47.400;8.062;2023-01-04T02:41:02;13.50;99.90
8711;DHT22;4392;47.400;8.062;2023-01-04T02:44:15;13.50;99.90
8711;DHT22;4392;47.400;8.062;2023-01-04T02:47:10;13.60;99.90
8711;DHT22;4392;47.400;8.062;2023-01-04T02:49:37;13.70;99.90
8711;DHT22;4392;47.400;8.062;2023-01-04T02:52:24;13.80;99.90
8711;DHT22;4392;47.400;8.062;2023-01-04T02:54:53;13.80;99.90
8711;DHT22;4392;47.400;8.062;2023-01-04T03:00:03;13.90;99.90
8711;DHT22;4392;47.400;8.062;2023-01-04T03:09:04;13.90;99.90
8711;DHT22;4392;47.400;8.062;2023-01-04T03:11:44;14.00;99.70
8711;DHT22;4392;47.400;8.062;2023-01-04T03:14:38;14.10;98.90
8711;DHT22;4392;47.400;8.062;2023-01-04T03:17:08;14.10;97.80
8711;DHT22;4392;47.400;8.062;2023-01-04T03:19:36;14.10;97.50
8711;DHT22;4392;47.400;8.062;2023-01-04T03:22:28;14.10;97.00
8711;DHT22;4392;47.400;8.062;2023-01-04T03:25:14;14.10;96.60
8711;DHT22;4392;47.400;8.062;2023-01-04T03:28:03;14.00;95.20
8711;DHT22;4392;47.400;8.062;2023-01-04T03:31:16;13.10;95.40
8711;DHT22;4392;47.400;8.062;2023-01-04T03:34:03;12.20;97.20
8711;DHT22;4392;47.400;8.062;2023-01-04T03:39:44;11.40;99.90
8711;DHT22;4392;47.400;8.062;2023-01-04T03:42:45;11.10;99.90
8711;DHT22;4392;47.400;8.062;2023-01-04T03:45:32;10.90;99.90
8711;DHT22;4392;47.400;8.062;2023-01-04T03:48:27;10.80;99.90
8711;DHT22;4392;47.400;8.062;2023-01-04T03:51:01;10.70;99.90
8711;DHT22;4392;47.400;8.062;2023-01-04T03:53:30;10.60;99.90
8711;DHT22;4392;47.400;8.062;2023-01-04T03:55:58;10.50;99.90
8711;DHT22;4392;47.400;8.062;2023-01-04T03:58:25;10.40;99.90
8711;DHT22;4392;47.400;8.062;2023-01-04T04:00:51;10.40;99.90
8711;DHT22;4392;47.400;8.062;2023-01-04T04:03:17;10.40;99.90
8711;DHT22;4392;47.400;8.062;2023-01-04T04:05:43;10.30;99.90
8711;DHT22;4392;47.400;8.062;2023-01-04T04:08:28;10.20;99.90
8711;DHT22;4392;47.400;8.062;2023-01-04T04:10:59;11.00;99.90
8711;DHT22;4392;47.400;8.062;2023-01-04T04:13:49;12.40;99.90
8711;DHT22;4392;47.400;8.062;2023-01-04T04:16:15;12.80;99.90
8711;DHT22;4392;47.400;8.062;2023-01-04T04:18:41;12.00;99.90
8711;DHT22;4392;47.400;8.062;2023-01-04T04:21:07;11.40;99.90
8711;DHT22;4392;47.400;8.062;2023-01-04T04:23:33;11.00;99.90
8711;DHT22;4392;47.400;8.062;2023-01-04T04:25:59;10.90;99.90
8711;DHT22;4392;47.400;8.062;2023-01-04T04:28:24;10.70;99.90
8711;DHT22;4392;47.400;8.062;2023-01-04T04:30:51;10.60;99.90
8711;DHT22;4392;47.400;8.062;2023-01-04T04:33:16;10.60;99.90
8711;DHT22;4392;47.400;8.062;2023-01-04T04:35:42;10.50;99.90
8711;DHT22;4392;47.400;8.062;2023-01-04T04:38:08;10.30;99.90
8711;DHT22;4392;47.400;8.062;2023-01-04T04:40:34;10.20;99.90
8711;DHT22;4392;47.400;8.062;2023-01-04T04:43:20;10.20;99.90
8711;DHT22;4392;47.400;8.062;2023-01-04T04:45:46;10.30;99.90
8711;DHT22;4392;47.400;8.062;2023-01-04T04:48:12;10.20;99.90
8711;DHT22;4392;47.400;8.062;2023-01-04T04:50:38;10.20;99.90
8711;DHT22;4392;47.400;8.062;2023-01-04T04:53:05;10.20;99.90
8711;DHT22;4392;47.400;8.062;2023-01-04T04:55:31;10.20;99.90
8711;DHT22;4392;47.400;8.062;2023-01-04T04:57:57;10.10;99.90
8711;DHT22;4392;47.400;8.062;2023-01-04T05:00:26;10.10;99.90
8711;DHT22;4392;47.400;8.062;2023-01-04T05:02:52;10.10;99.90
8711;DHT22;4392;47.400;8.062;2023-01-04T05:05:18;10.00;99.90
8711;DHT22;4392;47.400;8.062;2023-01-04T05:07:43;10.00;99.90
8711;DHT22;4392;47.400;8.062;2023-01-04T05:10:09;10.00;99.90
8711;DHT22;4392;47.400;8.062;2023-01-04T05:12:35;9.90;99.90
8711;DHT22;4392;47.400;8.062;2023-01-04T05:15:19;9.90;99.90
8711;DHT22;4392;47.400;8.062;2023-01-04T05:17:45;9.90;99.90
8711;DHT22;4392;47.400;8.062;2023-01-04T05:20:13;11.60;99.90
8711;DHT22;4392;47.400;8.062;2023-01-04T05:22:38;12.40;99.90
8711;DHT22;4392;47.400;8.062;2023-01-04T05:25:06;12.70;99.90
8711;DHT22;4392;47.400;8.062;2023-01-04T05:27:32;13.00;99.90
8711;DHT22;4392;47.400;8.062;2023-01-04T05:29:58;13.10;99.90
8711;DHT22;4392;47.400;8.062;2023-01-04T05:32:42;12.20;99.70
8711;DHT22;4392;47.400;8.062;2023-01-04T05:35:08;11.40;99.90
8711;DHT22;4392;47.400;8.062;2023-01-04T05:37:34;11.00;99.90
8711;DHT22;4392;47.400;8.062;2023-01-04T05:40:00;10.70;99.90
8711;DHT22;4392;47.400;8.062;2023-01-04T05:42:25;10.50;99.90
8711;DHT22;4392;47.400;8.062;2023-01-04T05:44:53;10.40;99.90
8711;DHT22;4392;47.400;8.062;2023-01-04T05:47:19;10.30;99.90
8711;DHT22;4392;47.400;8.062;2023-01-04T05:49:45;10.30;99.90
8711;DHT22;4392;47.400;8.062;2023-01-04T05:52:11;10.20;99.90
8711;DHT22;4392;47.400;8.062;2023-01-04T05:54:37;10.10;99.90
8711;DHT22;4392;47.400;8.062;2023-01-04T05:57:03;10.10;99.90
8711;DHT22;4392;47.400;8.062;2023-01-04T05:59:28;10.00;99.90
8711;DHT22;4392;47.400;8.062;2023-01-04T06:01:54;10.00;99.90
8711;DHT22;4392;47.400;8.062;2023-01-04T06:04:20;10.00;99.90
8711;DHT22;4392;47.400;8.062;2023-01-04T06:06:48;10.00;99.90
8711;DHT22;4392;47.400;8.062;2023-01-04T06:09:13;9.90;99.90
8711;DHT22;4392;47.400;8.062;2023-01-04T06:11:39;9.90;99.90
8711;DHT22;4392;47.400;8.062;2023-01-04T06:14:05;9.90;99.90
8711;DHT22;4392;47.400;8.062;2023-01-04T06:16:30;9.90;99.90
8711;DHT22;4392;47.400;8.062;2023-01-04T06:18:56;9.80;99.90
8711;DHT22;4392;47.400;8.062;2023-01-04T06:21:23;9.80;99.90
8711;DHT22;4392;47.400;8.062;2023-01-04T06:23:51;9.80;99.90
8711;DHT22;4392;47.400;8.062;2023-01-04T06:26:18;9.80;99.90
8711;DHT22;4392;47.400;8.062;2023-01-04T06:28:44;9.80;99.90
8711;DHT22;4392;47.400;8.062;2023-01-04T06:31:10;9.80;99.90
8711;DHT22;4392;47.400;8.062;2023-01-04T06:33:37;9.70;99.90
8711;DHT22;4392;47.400;8.062;2023-01-04T06:36:03;9.70;99.90
8711;DHT22;4392;47.400;8.062;2023-01-04T06:38:30;9.70;99.90
8711;DHT22;4392;47.400;8.062;2023-01-04T06:40:56;9.70;99.90
8711;DHT22;4392;47.400;8.062;2023-01-04T06:43:21;9.70;99.90
8711;DHT22;4392;47.400;8.062;2023-01-04T06:45:47;9.60;99.90
8711;DHT22;4392;47.400;8.062;2023-01-04T06:48:15;9.70;99.90
8711;DHT22;4392;47.400;8.062;2023-01-04T06:50:41;9.60;99.90
8711;DHT22;4392;47.400;8.062;2023-01-04T06:53:07;9.60;99.90
8711;DHT22;4392;47.400;8.062;2023-01-04T06:55:33;9.60;99.90
8711;DHT22;4392;47.400;8.062;2023-01-04T06:57:59;9.60;99.90
8711;DHT22;4392;47.400;8.062;2023-01-04T07:00:27;9.40;99.90
8711;DHT22;4392;47.400;8.062;2023-01-04T07:02:53;9.50;99.90
8711;DHT22;4392;47.400;8.062;2023-01-04T07:05:19;9.50;99.90
8711;DHT22;4392;47.400;8.062;2023-01-04T07:07:44;9.50;99.90
8711;DHT22;4392;47.400;8.062;2023-01-04T07:10:10;9.50;99.90
8711;DHT22;4392;47.400;8.062;2023-01-04T07:12:37;9.60;99.90
8711;DHT22;4392;47.400;8.062;2023-01-04T07:15:04;9.50;99.90
8711;DHT22;4392;47.400;8.062;2023-01-04T07:17:29;9.50;99.90
8711;DHT22;4392;47.400;8.062;2023-01-04T07:19:55;9.50;99.90
8711;DHT22;4392;47.400;8.062;2023-01-04T07:22:21;9.60;99.90
8711;DHT22;4392;47.400;8.062;2023-01-04T07:24:47;9.50;99.90
8711;DHT22;4392;47.400;8.062;2023-01-04T07:27:13;9.50;99.90
8711;DHT22;4392;47.400;8.062;2023-01-04T07:29:39;9.50;99.90
8711;DHT22;4392;47.400;8.062;2023-01-04T07:32:09;9.50;99.90
8711;DHT22;4392;47.400;8.062;2023-01-04T07:34:36;9.50;99.90
8711;DHT22;4392;47.400;8.062;2023-01-04T07:37:03;9.50;99.90
8711;DHT22;4392;47.400;8.062;2023-01-04T07:39:28;9.40;99.90
8711;DHT22;4392;47.400;8.062;2023-01-04T07:41:54;9.30;99.90
8711;DHT22;4392;47.400;8.062;2023-01-04T07:44:20;9.40;99.90
8711;DHT22;4392;47.400;8.062;2023-01-04T07:46:46;9.40;99.90
8711;DHT22;4392;47.400;8.062;2023-01-04T07:49:14;9.50;99.90
8711;DHT22;4392;47.400;8.062;2023-01-04T07:51:45;9.40;99.90
8711;DHT22;4392;47.400;8.062;2023-01-04T07:54:15;9.40;99.90
8711;DHT22;4392;47.400;8.062;2023-01-04T07:56:41;9.40;99.90
8711;DHT22;4392;47.400;8.062;2023-01-04T07:59:08;9.10;99.90
8711;DHT22;4392;47.400;8.062;2023-01-04T08:01:35;9.30;99.90
8711;DHT22;4392;47.400;8.062;2023-01-04T08:04:04;9.40;99.90
8711;DHT22;4392;47.400;8.062;2023-01-04T08:06:30;9.40;99.90
8711;DHT22;4392;47.400;8.062;2023-01-04T08:08:57;9.50;99.90
8711;DHT22;4392;47.400;8.062;2023-01-04T08:11:23;9.60;99.90
8711;DHT22;4392;47.400;8.062;2023-01-04T08:13:49;9.60;99.90
8711;DHT22;4392;47.400;8.062;2023-01-04T08:16:24;9.60;99.90
8711;DHT22;4392;47.400;8.062;2023-01-04T08:18:54;9.50;99.90
8711;DHT22;4392;47.400;8.062;2023-01-04T08:21:23;9.60;99.90
8711;DHT22;4392;47.400;8.062;2023-01-04T08:23:49;9.60;99.90
8711;DHT22;4392;47.400;8.062;2023-01-04T08:26:15;9.60;99.90
8711;DHT22;4392;47.400;8.062;2023-01-04T08:28:41;9.60;99.90
8711;DHT22;4392;47.400;8.062;2023-01-04T08:31:10;9.60;99.90
8711;DHT22;4392;47.400;8.062;2023-01-04T08:33:37;9.70;99.90
8711;DHT22;4392;47.400;8.062;2023-01-04T08:36:26;9.40;99.90
8711;DHT22;4392;47.400;8.062;2023-01-04T08:38:54;9.60;99.90
8711;DHT22;4392;47.400;8.062;2023-01-04T08:41:23;9.70;99.90
8711;DHT22;4392;47.400;8.062;2023-01-04T08:43:51;9.70;99.90
8711;DHT22;4392;47.400;8.062;2023-01-04T08:46:17;9.70;99.90
8711;DHT22;4392;47.400;8.062;2023-01-04T08:48:43;9.70;99.90
8711;DHT22;4392;47.400;8.062;2023-01-04T08:51:14;9.50;99.90
8711;DHT22;4392;47.400;8.062;2023-01-04T08:53:41;9.60;99.90
8711;DHT22;4392;47.400;8.062;2023-01-04T08:56:07;9.60;99.90
8711;DHT22;4392;47.400;8.062;2023-01-04T08:58:35;9.70;99.90
8711;DHT22;4392;47.400;8.062;2023-01-04T09:01:03;9.70;99.90
8711;DHT22;4392;47.400;8.062;2023-01-04T09:03:30;9.70;99.90
8711;DHT22;4392;47.400;8.062;2023-01-04T09:06:07;9.70;99.90
8711;DHT22;4392;47.400;8.062;2023-01-04T09:08:39;9.80;99.90
8711;DHT22;4392;47.400;8.062;2023-01-04T09:11:26;9.80;99.90
8711;DHT22;4392;47.400;8.062;2023-01-04T09:13:58;9.80;99.90
8711;DHT22;4392;47.400;8.062;2023-01-04T09:16:23;9.80;99.90
8711;DHT22;4392;47.400;8.062;2023-01-04T09:18:49;9.80;99.90
8711;DHT22;4392;47.400;8.062;2023-01-04T09:21:19;9.70;99.90
8711;DHT22;4392;47.400;8.062;2023-01-04T09:23:45;9.80;99.90
8711;DHT22;4392;47.400;8.062;2023-01-04T09:26:13;9.80;99.90
8711;DHT22;4392;47.400;8.062;2023-01-04T09:28:39;9.80;99.90
8711;DHT22;4392;47.400;8.062;2023-01-04T09:31:15;9.80;99.90
8711;DHT22;4392;47.400;8.062;2023-01-04T09:33:43;9.90;99.90
8711;DHT22;4392;47.400;8.062;2023-01-04T09:36:12;9.80;99.90
8711;DHT22;4392;47.400;8.062;2023-01-04T09:38:38;9.90;99.90
8711;DHT22;4392;47.400;8.062;2023-01-04T09:43:53;9.90;99.90
8711;DHT22;4392;47.400;8.062;2023-01-04T09:52:22;9.90;99.90
8711;DHT22;4392;47.400;8.062;2023-01-04T09:55:08;9.90;99.90
8711;DHT22;4392;47.400;8.062;2023-01-04T09:57:50;9.90;99.90
8711;DHT22;4392;47.400;8.062;2023-01-04T10:00:31;9.90;99.90
8711;DHT22;4392;47.400;8.062;2023-01-04T10:03:23;9.90;99.90
8711;DHT22;4392;47.400;8.062;2023-01-04T10:05:52;10.00;99.90
8711;DHT22;4392;47.400;8.062;2023-01-04T10:08:19;10.00;99.90
8711;DHT22;4392;47.400;8.062;2023-01-04T10:21:24;9.90;99.90
8711;DHT22;4392;47.400;8.062;2023-01-04T10:24:37;9.90;99.90
8711;DHT22;4392;47.400;8.062;2023-01-04T10:27:17;9.90;99.90
8711;DHT22;4392;47.400;8.062;2023-01-04T10:32:42;9.90;99.90
8711;DHT22;4392;47.400;8.062;2023-01-04T10:35:21;9.80;99.90
8711;DHT22;4392;47.400;8.062;2023-01-04T10:37:50;9.80;99.90
8711;DHT22;4392;47.400;8.062;2023-01-04T10:40:17;9.90;99.90
8711;DHT22;4392;47.400;8.062;2023-01-04T10:45:53;9.80;99.90
8711;DHT22;4392;47.400;8.062;2023-01-04T10:48:31;9.90;99.90
8711;DHT22;4392;47.400;8.062;2023-01-04T10:51:02;9.90;99.90
8711;DHT22;4392;47.400;8.062;2023-01-04T11:05:13;9.90;99.90
8711;DHT22;4392;47.400;8.062;2023-01-04T11:10:27;9.90;99.90
8711;DHT22;4392;47.400;8.062;2023-01-04T11:12:57;9.90;99.90
8711;DHT22;4392;47.400;8.062;2023-01-04T11:15:25;10.00;99.90
8711;DHT22;4392;47.400;8.062;2023-01-04T11:17:51;10.00;99.90
8711;DHT22;4392;47.400;8.062;2023-01-04T11:20:19;10.00;99.90
8711;DHT22;4392;47.400;8.062;2023-01-04T11:22:57;10.00;99.90
8711;DHT22;4392;47.400;8.062;2023-01-04T11:25:24;10.00;99.90
8711;DHT22;4392;47.400;8.062;2023-01-04T11:27:55;10.00;99.90
8711;DHT22;4392;47.400;8.062;2023-01-04T11:30:24;9.90;99.90
8711;DHT22;4392;47.400;8.062;2023-01-04T11:35:47;9.90;99.90
8711;DHT22;4392;47.400;8.062;2023-01-04T11:38:26;10.00;99.90
8711;DHT22;4392;47.400;8.062;2023-01-04T11:41:04;9.90;99.90
8711;DHT22;4392;47.400;8.062;2023-01-04T11:43:37;10.00;99.90
8711;DHT22;4392;47.400;8.062;2023-01-04T11:46:06;10.00;99.90
8711;DHT22;4392;47.400;8.062;2023-01-04T11:48:41;10.00;99.90
8711;DHT22;4392;47.400;8.062;2023-01-04T11:56:29;9.90;99.90
8711;DHT22;4392;47.400;8.062;2023-01-04T12:01:42;9.80;99.90
8711;DHT22;4392;47.400;8.062;2023-01-04T12:04:12;9.90;99.90
8711;DHT22;4392;47.400;8.062;2023-01-04T12:06:49;9.90;99.90
8711;DHT22;4392;47.400;8.062;2023-01-04T12:09:18;9.90;99.90
8711;DHT22;4392;47.400;8.062;2023-01-04T12:11:52;10.10;99.90
8711;DHT22;4392;47.400;8.062;2023-01-04T12:14:31;10.10;99.90
8711;DHT22;4392;47.400;8.062;2023-01-04T12:17:21;9.90;99.90
8711;DHT22;4392;47.400;8.062;2023-01-04T12:19:52;9.90;99.90
8711;DHT22;4392;47.400;8.062;2023-01-04T12:24:51;10.00;99.90
8711;DHT22;4392;47.400;8.062;2023-01-04T12:27:18;10.00;99.90
8711;DHT22;4392;47.400;8.062;2023-01-04T12:34:47;10.00;99.90
8711;DHT22;4392;47.400;8.062;2023-01-04T12:45:40;10.20;99.90
8711;DHT22;4392;47.400;8.062;2023-01-04T12:51:19;10.10;99.90
8711;DHT22;4392;47.400;8.062;2023-01-04T12:53:54;10.20;99.90
8711;DHT22;4392;47.400;8.062;2023-01-04T12:56:23;10.20;99.90
8711;DHT22;4392;47.400;8.062;2023-01-04T12:59:11;10.10;99.90
8711;DHT22;4392;47.400;8.062;2023-01-04T13:01:39;10.20;99.90
8711;DHT22;4392;47.400;8.062;2023-01-04T13:06:52;10.20;99.90
8711;DHT22;4392;47.400;8.062;2023-01-04T13:09:20;10.20;99.90
8711;DHT22;4392;47.400;8.062;2023-01-04T13:14:39;10.30;99.90
8711;DHT22;4392;47.400;8.062;2023-01-04T13:17:20;10.30;99.90
8711;DHT22;4392;47.400;8.062;2023-01-04T13:19:47;10.20;99.90
8711;DHT22;4392;47.400;8.062;2023-01-04T13:22:28;10.30;99.90
8711;DHT22;4392;47.400;8.062;2023-01-04T13:24:56;10.30;99.90
8711;DHT22;4392;47.400;8.062;2023-01-04T13:27:23;10.20;99.90
8711;DHT22;4392;47.400;8.062;2023-01-04T13:29:52;10.20;99.90
8711;DHT22;4392;47.400;8.062;2023-01-04T13:32:27;10.20;99.90
8711;DHT22;4392;47.400;8.062;2023-01-04T13:37:45;10.30;99.90
8711;DHT22;4392;47.400;8.062;2023-01-04T13:40:34;10.30;99.90
8711;DHT22;4392;47.400;8.062;2023-01-04T13:48:34;10.30;99.90
8711;DHT22;4392;47.400;8.062;2023-01-04T13:51:03;10.30;99.90
8711;DHT22;4392;47.400;8.062;2023-01-04T13:53:30;10.30;99.90
8711;DHT22;4392;47.400;8.062;2023-01-04T13:56:00;10.40;99.90
8711;DHT22;4392;47.400;8.062;2023-01-04T13:58:31;10.40;99.90
8711;DHT22;4392;47.400;8.062;2023-01-04T14:01:04;10.30;99.90
8711;DHT22;4392;47.400;8.062;2023-01-04T14:06:26;10.20;99.90
8711;DHT22;4392;47.400;8.062;2023-01-04T14:09:23;10.30;99.90
8711;DHT22;4392;47.400;8.062;2023-01-04T14:11:56;10.20;99.90
8711;DHT22;4392;47.400;8.062;2023-01-04T14:27:45;10.40;99.90
8711;DHT22;4392;47.400;8.062;2023-01-04T14:30:21;10.20;99.90
8711;DHT22;4392;47.400;8.062;2023-01-04T14:33:14;10.30;99.90
8711;DHT22;4392;47.400;8.062;2023-01-04T14:35:41;10.20;99.90
8711;DHT22;4392;47.400;8.062;2023-01-04T14:38:16;10.20;99.90
8711;DHT22;4392;47.400;8.062;2023-01-04T14:40:43;10.20;99.90
8711;DHT22;4392;47.400;8.062;2023-01-04T14:43:36;10.30;99.90
8711;DHT22;4392;47.400;8.062;2023-01-04T14:46:03;10.40;99.90
8711;DHT22;4392;47.400;8.062;2023-01-04T14:48:29;10.30;99.90
8711;DHT22;4392;47.400;8.062;2023-01-04T14:50:57;10.30;99.90
8711;DHT22;4392;47.400;8.062;2023-01-04T14:53:24;10.40;99.90
8711;DHT22;4392;47.400;8.062;2023-01-04T14:55:52;10.20;99.90
8711;DHT22;4392;47.400;8.062;2023-01-04T14:58:20;10.20;99.90
8711;DHT22;4392;47.400;8.062;2023-01-04T15:00:46;10.30;99.90
8711;DHT22;4392;47.400;8.062;2023-01-04T15:03:12;10.40;99.90
8711;DHT22;4392;47.400;8.062;2023-01-04T15:05:39;10.40;99.90
8711;DHT22;4392;47.400;8.062;2023-01-04T15:08:07;10.40;99.90
8711;DHT22;4392;47.400;8.062;2023-01-04T15:10:34;10.40;99.90
8711;DHT22;4392;47.400;8.062;2023-01-04T15:12:59;10.40;99.90
8711;DHT22;4392;47.400;8.062;2023-01-04T15:15:28;10.50;99.90
8711;DHT22;4392;47.400;8.062;2023-01-04T15:17:54;10.50;99.90
8711;DHT22;4392;47.400;8.062;2023-01-04T15:20:20;10.50;99.90
8711;DHT22;4392;47.400;8.062;2023-01-04T15:22:45;10.50;99.90
8711;DHT22;4392;47.400;8.062;2023-01-04T15:25:11;10.50;99.90
8711;DHT22;4392;47.400;8.062;2023-01-04T15:27:37;10.40;99.90
8711;DHT22;4392;47.400;8.062;2023-01-04T15:30:03;10.40;99.90
8711;DHT22;4392;47.400;8.062;2023-01-04T15:32:31;10.50;99.90
8711;DHT22;4392;47.400;8.062;2023-01-04T15:34:56;10.50;99.90
8711;DHT22;4392;47.400;8.062;2023-01-04T15:37:22;10.50;99.90
8711;DHT22;4392;47.400;8.062;2023-01-04T15:39:48;10.50;99.90
8711;DHT22;4392;47.400;8.062;2023-01-04T15:42:14;10.50;99.90
8711;DHT22;4392;47.400;8.062;2023-01-04T15:44:58;10.40;99.90
8711;DHT22;4392;47.400;8.062;2023-01-04T15:47:24;10.40;99.90
8711;DHT22;4392;47.400;8.062;2023-01-04T15:49:49;10.40;99.90
8711;DHT22;4392;47.400;8.062;2023-01-04T15:52:15;10.40;99.90
8711;DHT22;4392;47.400;8.062;2023-01-04T15:54:41;10.40;99.90
8711;DHT22;4392;47.400;8.062;2023-01-04T15:57:06;10.40;99.90
8711;DHT22;4392;47.400;8.062;2023-01-04T15:59:32;10.40;99.90
8711;DHT22;4392;47.400;8.062;2023-01-04T16:01:58;10.40;99.90
8711;DHT22;4392;47.400;8.062;2023-01-04T16:04:24;10.40;99.90
8711;DHT22;4392;47.400;8.062;2023-01-04T16:06:51;10.40;99.90
8711;DHT22;4392;47.400;8.062;2023-01-04T16:09:17;10.30;99.90
8711;DHT22;4392;47.400;8.062;2023-01-04T16:11:42;10.30;99.90
8711;DHT22;4392;47.400;8.062;2023-01-04T16:14:27;10.40;99.90
8711;DHT22;4392;47.400;8.062;2023-01-04T16:16:53;10.40;99.90
8711;DHT22;4392;47.400;8.062;2023-01-04T16:19:19;10.10;99.90
8711;DHT22;4392;47.400;8.062;2023-01-04T16:21:45;10.20;99.90
8711;DHT22;4392;47.400;8.062;2023-01-04T16:24:11;10.20;99.90
8711;DHT22;4392;47.400;8.062;2023-01-04T16:26:38;10.30;99.90
8711;DHT22;4392;47.400;8.062;2023-01-04T16:29:03;10.30;99.90
8711;DHT22;4392;47.400;8.062;2023-01-04T16:31:34;10.30;99.90
8711;DHT22;4392;47.400;8.062;2023-01-04T16:33:59;10.30;99.90
8711;DHT22;4392;47.400;8.062;2023-01-04T16:36:25;10.40;99.90
8711;DHT22;4392;47.400;8.062;2023-01-04T16:38:51;10.40;99.90
8711;DHT22;4392;47.400;8.062;2023-01-04T16:41:19;10.40;99.90
8711;DHT22;4392;47.400;8.062;2023-01-04T16:43:53;10.10;99.90
8711;DHT22;4392;47.400;8.062;2023-01-04T16:46:28;10.00;99.90
8711;DHT22;4392;47.400;8.062;2023-01-04T16:51:28;10.10;99.90
8711;DHT22;4392;47.400;8.062;2023-01-04T16:53:55;10.20;99.90
8711;DHT22;4392;47.400;8.062;2023-01-04T16:56:22;10.30;99.90
8711;DHT22;4392;47.400;8.062;2023-01-04T16:58:49;10.20;99.90
8711;DHT22;4392;47.400;8.062;2023-01-04T17:01:27;10.20;99.90
8711;DHT22;4392;47.400;8.062;2023-01-04T17:03:58;10.10;99.90
8711;DHT22;4392;47.400;8.062;2023-01-04T17:06:30;9.90;99.90
8711;DHT22;4392;47.400;8.062;2023-01-04T17:08:57;10.00;99.90
8711;DHT22;4392;47.400;8.062;2023-01-04T17:11:26;10.00;99.90
8711;DHT22;4392;47.400;8.062;2023-01-04T17:13:52;10.10;99.90
8711;DHT22;4392;47.400;8.062;2023-01-04T17:16:19;9.90;99.90
8711;DHT22;4392;47.400;8.062;2023-01-04T17:18:49;10.00;99.90
8711;DHT22;4392;47.400;8.062;2023-01-04T17:21:20;10.10;99.90
8711;DHT22;4392;47.400;8.062;2023-01-04T17:23:48;10.20;99.90
8711;DHT22;4392;47.400;8.062;2023-01-04T17:26:23;10.20;99.90
8711;DHT22;4392;47.400;8.062;2023-01-04T17:29:09;10.30;99.90
8711;DHT22;4392;47.400;8.062;2023-01-04T17:31:37;10.10;99.90
8711;DHT22;4392;47.400;8.062;2023-01-04T17:34:08;10.20;99.90
8711;DHT22;4392;47.400;8.062;2023-01-04T17:36:35;10.20;99.90
8711;DHT22;4392;47.400;8.062;2023-01-04T17:39:01;10.20;99.90
8711;DHT22;4392;47.400;8.062;2023-01-04T17:41:29;10.30;99.90
8711;DHT22;4392;47.400;8.062;2023-01-04T17:43:57;10.30;99.90
8711;DHT22;4392;47.400;8.062;2023-01-04T17:46:25;10.40;99.90
8711;DHT22;4392;47.400;8.062;2023-01-04T17:48:52;10.30;99.90
8711;DHT22;4392;47.400;8.062;2023-01-04T17:51:20;10.40;99.90
8711;DHT22;4392;47.400;8.062;2023-01-04T17:53:56;10.40;99.90
8711;DHT22;4392;47.400;8.062;2023-01-04T17:56:23;10.40;99.90
8711;DHT22;4392;47.400;8.062;2023-01-04T17:58:49;10.30;99.90
8711;DHT22;4392;47.400;8.062;2023-01-04T18:01:23;10.30;99.90
8711;DHT22;4392;47.400;8.062;2023-01-04T18:03:55;10.40;99.90
8711;DHT22;4392;47.400;8.062;2023-01-04T18:06:24;10.40;99.90
8711;DHT22;4392;47.400;8.062;2023-01-04T18:08:54;10.40;99.90
8711;DHT22;4392;47.400;8.062;2023-01-04T18:11:23;10.40;99.90
8711;DHT22;4392;47.400;8.062;2023-01-04T18:13:49;10.30;99.90
8711;DHT22;4392;47.400;8.062;2023-01-04T18:16:19;10.40;99.90
8711;DHT22;4392;47.400;8.062;2023-01-04T18:18:56;10.40;99.90
8711;DHT22;4392;47.400;8.062;2023-01-04T18:21:28;10.40;99.90
8711;DHT22;4392;47.400;8.062;2023-01-04T18:23:56;10.40;99.90
8711;DHT22;4392;47.400;8.062;2023-01-04T18:26:21;10.40;99.90
8711;DHT22;4392;47.400;8.062;2023-01-04T18:28:47;10.40;99.90
8711;DHT22;4392;47.400;8.062;2023-01-04T18:31:19;10.40;99.90
8711;DHT22;4392;47.400;8.062;2023-01-04T18:33:56;10.40;99.90
8711;DHT22;4392;47.400;8.062;2023-01-04T18:36:23;10.40;99.90